sensor_id;sensor_type;location;lat;lon;timestamp;temperature;humidity
18880;DHT22;9572;52.378;13.404;2022-09-09T00:00:49;14.90;99.90
18880;DHT22;9572;52.378;13.404;2022-09-09T00:03:19;14.80;99.90
18880;DHT22;9572;52.378;13.404;2022-09-09T00:05:54;14.80;99.90
18880;DHT22;9572;52.378;13.404;2022-09-09T00:08:31;14.80;99.90
18880;DHT22;9572;52.378;13.404;2022-09-09T00:11:01;14.70;99.90
18880;DHT22;9572;52.378;13.404;2022-09-09T00:13:36;14.70;99.90
18880;DHT22;9572;52.378;13.404;2022-09-09T00:16:08;14.70;99.90
18880;DHT22;9572;52.378;13.404;2022-09-09T00:18:46;14.70;99.90
18880;DHT22;9572;52.378;13.404;2022-09-09T00:21:18;14.70;99.90
18880;DHT22;9572;52.378;13.404;2022-09-09T00:23:50;14.70;99.90
18880;DHT22;9572;52.378;13.404;2022-09-09T00:26:24;14.70;99.90
18880;DHT22;9572;52.378;13.404;2022-09-09T00:29:03;14.70;99.90
18880;DHT22;9572;52.378;13.404;2022-09-09T00:31:31;14.70;99.90
18880;DHT22;9572;52.378;13.404;2022-09-09T00:34:09;14.70;99.90
18880;DHT22;9572;52.378;13.404;2022-09-09T00:36:39;14.60;99.90
18880;DHT22;9572;52.378;13.404;2022-09-09T00:39:12;14.60;99.90
18880;DHT22;9572;52.378;13.404;2022-09-09T00:41:50;14.50;99.90
18880;DHT22;9572;52.378;13.404;2022-09-09T00:44:27;14.50;99.90
18880;DHT22;9572;52.378;13.404;2022-09-09T00:47:04;14.50;99.90
18880;DHT22;9572;52.378;13.404;2022-09-09T00:49:43;14.50;99.90
18880;DHT22;9572;52.378;13.404;2022-09-09T00:52:24;14.40;99.90
18880;DHT22;9572;52.378;13.404;2022-09-09T00:55:03;14.30;99.90
18880;DHT22;9572;52.378;13.404;2022-09-09T00:57:33;14.30;99.90
18880;DHT22;9572;52.378;13.404;2022-09-09T01:00:18;14.30;99.90
18880;DHT22;9572;52.378;13.404;2022-09-09T01:03:05;14.30;99.90
18880;DHT22;9572;52.378;13.404;2022-09-09T01:05:41;14.20;99.90
18880;DHT22;9572;52.378;13.404;2022-09-09T01:08:18;14.30;99.90
18880;DHT22;9572;52.378;13.404;2022-09-09T01:10:52;14.20;99.90
18880;DHT22;9572;52.378;13.404;2022-09-09T01:13:24;14.20;99.90
18880;DHT22;9572;52.378;13.404;2022-09-09T01:15:53;14.20;99.90
18880;DHT22;9572;52.378;13.404;2022-09-09T01:18:22;14.10;99.90
18880;DHT22;9572;52.378;13.404;2022-09-09T01:21:00;14.20;99.90
18880;DHT22;9572;52.378;13.404;2022-09-09T01:23:48;14.10;99.90
18880;DHT22;9572;52.378;13.404;2022-09-09T01:26:25;14.10;99.90
18880;DHT22;9572;52.378;13.404;2022-09-09T01:28:53;14.10;99.90
18880;DHT22;9572;52.378;13.404;2022-09-09T01:31:23;14.10;99.90
18880;DHT22;9572;52.378;13.404;2022-09-09T01:33:53;14.10;99.90
18880;DHT22;9572;52.378;13.404;2022-09-09T01:36:26;14.10;99.90
18880;DHT22;9572;52.378;13.404;2022-09-09T01:38:54;14.10;99.90
18880;DHT22;9572;52.378;13.404;2022-09-09T01:41:23;14.10;99.90
18880;DHT22;9572;52.378;13.404;2022-09-09T01:43:50;14.00;99.90
18880;DHT22;9572;52.378;13.404;2022-09-09T01:46:17;14.00;99.90
18880;DHT22;9572;52.378;13.404;2022-09-09T01:48:45;14.00;99.90
18880;DHT22;9572;52.378;13.404;2022-09-09T01:51:12;14.00;99.90
18880;DHT22;9572;52.378;13.404;2022-09-09T01:53:40;14.00;99.90
18880;DHT22;9572;52.378;13.404;2022-09-09T01:56:17;13.90;99.90
18880;DHT22;9572;52.378;13.404;2022-09-09T01:58:57;13.90;99.90
18880;DHT22;9572;52.378;13.404;2022-09-09T02:01:32;13.90;99.90
18880;DHT22;9572;52.378;13.404;2022-09-09T02:04:05;13.80;99.90
18880;DHT22;9572;52.378;13.404;2022-09-09T02:06:36;13.80;99.90
18880;DHT22;9572;52.378;13.404;2022-09-09T02:09:05;13.80;99.90
18880;DHT22;9572;52.378;13.404;2022-09-09T02:11:33;13.80;99.90
18880;DHT22;9572;52.378;13.404;2022-09-09T02:14:06;13.70;99.90
18880;DHT22;9572;52.378;13.404;2022-09-09T02:16:39;13.80;99.90
18880;DHT22;9572;52.378;13.404;2022-09-09T02:19:10;13.70;99.90
18880;DHT22;9572;52.378;13.404;2022-09-09T02:21:40;13.70;99.90
18880;DHT22;9572;52.378;13.404;2022-09-09T02:24:09;13.70;99.90
18880;DHT22;9572;52.378;13.404;2022-09-09T02:26:39;13.70;99.90
18880;DHT22;9572;52.378;13.404;2022-09-09T02:29:11;13.70;99.90
18880;DHT22;9572;52.378;13.404;2022-09-09T02:31:39;13.80;99.90
18880;DHT22;9572;52.378;13.404;2022-09-09T02:34:09;13.80;99.90
18880;DHT22;9572;52.378;13.404;2022-09-09T02:36:38;13.80;99.90
18880;DHT22;9572;52.378;13.404;2022-09-09T02:39:10;13.70;99.90
18880;DHT22;9572;52.378;13.404;2022-09-09T02:41:40;13.70;99.90
18880;DHT22;9572;52.378;13.404;2022-09-09T02:44:11;13.60;99.90
18880;DHT22;9572;52.378;13.404;2022-09-09T02:47:01;13.60;99.90
18880;DHT22;9572;52.378;13.404;2022-09-09T02:49:40;13.50;99.90
18880;DHT22;9572;52.378;13.404;2022-09-09T02:52:14;13.60;99.90
18880;DHT22;9572;52.378;13.404;2022-09-09T02:54:42;13.60;99.90
18880;DHT22;9572;52.378;13.404;2022-09-09T02:57:12;13.60;99.90
18880;DHT22;9572;52.378;13.404;2022-09-09T02:59:40;13.70;99.90
18880;DHT22;9572;52.378;13.404;2022-09-09T03:02:09;13.70;99.90
18880;DHT22;9572;52.378;13.404;2022-09-09T03:04:37;13.60;99.90
18880;DHT22;9572;52.378;13.404;2022-09-09T03:09:31;13.70;99.90
18880;DHT22;9572;52.378;13.404;2022-09-09T03:11:59;13.70;99.90
18880;DHT22;9572;52.378;13.404;2022-09-09T03:14:26;13.60;99.90
18880;DHT22;9572;52.378;13.404;2022-09-09T03:16:54;13.70;99.90
18880;DHT22;9572;52.378;13.404;2022-09-09T03:19:21;13.60;99.90
18880;DHT22;9572;52.378;13.404;2022-09-09T03:21:48;13.60;99.90
18880;DHT22;9572;52.378;13.404;2022-09-09T03:24:15;13.50;99.90
18880;DHT22;9572;52.378;13.404;2022-09-09T03:26:42;13.50;99.90
18880;DHT22;9572;52.378;13.404;2022-09-09T03:29:10;13.50;99.90
18880;DHT22;9572;52.378;13.404;2022-09-09T03:31:40;13.50;99.90
18880;DHT22;9572;52.378;13.404;2022-09-09T03:34:15;13.40;99.90
18880;DHT22;9572;52.378;13.404;2022-09-09T03:36:42;13.40;99.90
18880;DHT22;9572;52.378;13.404;2022-09-09T03:39:10;13.40;99.90
18880;DHT22;9572;52.378;13.404;2022-09-09T03:41:40;13.40;99.90
18880;DHT22;9572;52.378;13.404;2022-09-09T03:44:10;13.40;99.90
18880;DHT22;9572;52.378;13.404;2022-09-09T03:46:40;13.30;99.90
18880;DHT22;9572;52.378;13.404;2022-09-09T03:49:15;13.30;99.90
18880;DHT22;9572;52.378;13.404;2022-09-09T03:51:42;13.30;99.90
18880;DHT22;9572;52.378;13.404;2022-09-09T03:54:10;13.30;99.90
18880;DHT22;9572;52.378;13.404;2022-09-09T03:56:40;13.30;99.90
18880;DHT22;9572;52.378;13.404;2022-09-09T03:59:11;13.20;99.90
18880;DHT22;9572;52.378;13.404;2022-09-09T04:01:39;13.20;99.90
18880;DHT22;9572;52.378;13.404;2022-09-09T04:04:15;13.20;99.90
18880;DHT22;9572;52.378;13.404;2022-09-09T04:06:42;13.20;99.90
18880;DHT22;9572;52.378;13.404;2022-09-09T04:09:10;13.20;99.90
18880;DHT22;9572;52.378;13.404;2022-09-09T04:11:40;13.20;99.90
18880;DHT22;9572;52.378;13.404;2022-09-09T04:14:11;13.20;99.90
18880;DHT22;9572;52.378;13.404;2022-09-09T04:16:40;13.10;99.90
18880;DHT22;9572;52.378;13.404;2022-09-09T04:19:15;13.10;99.90
18880;DHT22;9572;52.378;13.404;2022-09-09T04:21:42;13.10;99.90
18880;DHT22;9572;52.378;13.404;2022-09-09T04:24:10;13.10;99.90
18880;DHT22;9572;52.378;13.404;2022-09-09T04:26:42;13.00;99.90
18880;DHT22;9572;52.378;13.404;2022-09-09T04:29:11;13.00;99.90
18880;DHT22;9572;52.378;13.404;2022-09-09T04:31:40;13.10;99.90
18880;DHT22;9572;52.378;13.404;2022-09-09T04:34:15;13.10;99.90
18880;DHT22;9572;52.378;13.404;2022-09-09T04:36:42;13.10;99.90
18880;DHT22;9572;52.378;13.404;2022-09-09T04:39:11;13.20;99.90
18880;DHT22;9572;52.378;13.404;2022-09-09T04:41:40;13.20;99.90
18880;DHT22;9572;52.378;13.404;2022-09-09T04:44:10;13.20;99.90
18880;DHT22;9572;52.378;13.404;2022-09-09T04:46:41;13.30;99.90
18880;DHT22;9572;52.378;13.404;2022-09-09T04:49:15;13.30;99.90
18880;DHT22;9572;52.378;13.404;2022-09-09T04:51:43;13.30;99.90
18880;DHT22;9572;52.378;13.404;2022-09-09T04:54:12;13.40;99.90
18880;DHT22;9572;52.378;13.404;2022-09-09T04:56:40;13.30;99.90
18880;DHT22;9572;52.378;13.404;2022-09-09T04:59:10;13.30;99.90
18880;DHT22;9572;52.378;13.404;2022-09-09T05:01:40;13.40;99.90
18880;DHT22;9572;52.378;13.404;2022-09-09T05:04:15;13.40;99.90
18880;DHT22;9572;52.378;13.404;2022-09-09T05:06:42;13.40;99.90
18880;DHT22;9572;52.378;13.404;2022-09-09T05:09:11;13.50;99.90
18880;DHT22;9572;52.378;13.404;2022-09-09T05:11:40;13.50;99.90
18880;DHT22;9572;52.378;13.404;2022-09-09T05:14:11;13.50;99.90
18880;DHT22;9572;52.378;13.404;2022-09-09T05:16:40;13.60;99.90
18880;DHT22;9572;52.378;13.404;2022-09-09T05:19:15;13.60;99.90
18880;DHT22;9572;52.378;13.404;2022-09-09T05:21:45;13.60;99.90
18880;DHT22;9572;52.378;13.404;2022-09-09T05:24:12;13.70;99.90
18880;DHT22;9572;52.378;13.404;2022-09-09T05:26:40;13.70;99.90
18880;DHT22;9572;52.378;13.404;2022-09-09T05:29:10;13.80;99.90
18880;DHT22;9572;52.378;13.404;2022-09-09T05:31:39;13.80;99.90
18880;DHT22;9572;52.378;13.404;2022-09-09T05:34:15;13.80;99.90
18880;DHT22;9572;52.378;13.404;2022-09-09T05:36:42;13.90;99.90
18880;DHT22;9572;52.378;13.404;2022-09-09T05:39:10;14.00;99.90
18880;DHT22;9572;52.378;13.404;2022-09-09T05:41:40;14.00;99.90
18880;DHT22;9572;52.378;13.404;2022-09-09T05:44:09;14.10;99.90
18880;DHT22;9572;52.378;13.404;2022-09-09T05:46:39;14.10;99.90
18880;DHT22;9572;52.378;13.404;2022-09-09T05:49:15;14.20;99.90
18880;DHT22;9572;52.378;13.404;2022-09-09T05:51:42;14.30;99.90
18880;DHT22;9572;52.378;13.404;2022-09-09T05:54:09;14.40;99.90
18880;DHT22;9572;52.378;13.404;2022-09-09T05:56:39;14.60;99.90
18880;DHT22;9572;52.378;13.404;2022-09-09T05:59:10;14.80;99.90
18880;DHT22;9572;52.378;13.404;2022-09-09T06:01:38;15.00;99.90
18880;DHT22;9572;52.378;13.404;2022-09-09T06:04:07;15.30;99.90
18880;DHT22;9572;52.378;13.404;2022-09-09T06:06:37;15.50;99.90
18880;DHT22;9572;52.378;13.404;2022-09-09T06:09:06;15.70;99.90
18880;DHT22;9572;52.378;13.404;2022-09-09T06:11:38;15.90;99.90
18880;DHT22;9572;52.378;13.404;2022-09-09T06:14:10;16.00;99.90
18880;DHT22;9572;52.378;13.404;2022-09-09T06:16:39;16.20;99.90
18880;DHT22;9572;52.378;13.404;2022-09-09T06:19:10;16.30;99.90
18880;DHT22;9572;52.378;13.404;2022-09-09T06:21:45;16.30;99.90
18880;DHT22;9572;52.378;13.404;2022-09-09T06:24:15;16.30;99.90
18880;DHT22;9572;52.378;13.404;2022-09-09T06:26:44;16.30;99.90
18880;DHT22;9572;52.378;13.404;2022-09-09T06:29:11;16.30;99.90
18880;DHT22;9572;52.378;13.404;2022-09-09T06:31:40;16.20;99.90
18880;DHT22;9572;52.378;13.404;2022-09-09T06:34:10;16.10;99.90
18880;DHT22;9572;52.378;13.404;2022-09-09T06:36:46;16.00;99.90
18880;DHT22;9572;52.378;13.404;2022-09-09T06:39:12;16.10;99.90
18880;DHT22;9572;52.378;13.404;2022-09-09T06:41:41;16.10;99.90
18880;DHT22;9572;52.378;13.404;2022-09-09T06:44:10;16.20;99.90
18880;DHT22;9572;52.378;13.404;2022-09-09T06:46:41;16.20;99.90
18880;DHT22;9572;52.378;13.404;2022-09-09T06:49:13;16.20;99.90
18880;DHT22;9572;52.378;13.404;2022-09-09T06:51:43;16.20;99.90
18880;DHT22;9572;52.378;13.404;2022-09-09T06:54:12;16.10;99.90
18880;DHT22;9572;52.378;13.404;2022-09-09T06:56:41;16.10;99.90
18880;DHT22;9572;52.378;13.404;2022-09-09T06:59:11;16.00;99.90
18880;DHT22;9572;52.378;13.404;2022-09-09T07:01:40;15.90;99.90
18880;DHT22;9572;52.378;13.404;2022-09-09T07:04:07;15.90;99.90
18880;DHT22;9572;52.378;13.404;2022-09-09T07:06:36;16.00;99.90
18880;DHT22;9572;52.378;13.404;2022-09-09T07:09:07;16.00;99.90
18880;DHT22;9572;52.378;13.404;2022-09-09T07:11:37;16.00;99.90
18880;DHT22;9572;52.378;13.404;2022-09-09T07:14:04;16.00;99.90
18880;DHT22;9572;52.378;13.404;2022-09-09T07:16:31;16.10;99.90
18880;DHT22;9572;52.378;13.404;2022-09-09T07:19:00;16.10;99.90
18880;DHT22;9572;52.378;13.404;2022-09-09T07:21:31;16.10;99.90
18880;DHT22;9572;52.378;13.404;2022-09-09T07:24:01;16.20;99.90
18880;DHT22;9572;52.378;13.404;2022-09-09T07:26:36;16.30;99.90
18880;DHT22;9572;52.378;13.404;2022-09-09T07:29:03;16.40;99.90
18880;DHT22;9572;52.378;13.404;2022-09-09T07:31:33;16.40;99.90
18880;DHT22;9572;52.378;13.404;2022-09-09T07:34:01;16.50;99.90
18880;DHT22;9572;52.378;13.404;2022-09-09T07:36:32;16.70;99.90
18880;DHT22;9572;52.378;13.404;2022-09-09T07:39:02;16.70;99.90
18880;DHT22;9572;52.378;13.404;2022-09-09T07:41:36;16.80;99.90
18880;DHT22;9572;52.378;13.404;2022-09-09T07:44:07;16.90;99.90
18880;DHT22;9572;52.378;13.404;2022-09-09T07:46:35;17.00;99.90
18880;DHT22;9572;52.378;13.404;2022-09-09T07:49:03;17.10;99.90
18880;DHT22;9572;52.378;13.404;2022-09-09T07:51:32;17.10;99.90
18880;DHT22;9572;52.378;13.404;2022-09-09T07:54:02;17.10;99.90
18880;DHT22;9572;52.378;13.404;2022-09-09T07:56:32;17.10;99.90
18880;DHT22;9572;52.378;13.404;2022-09-09T07:59:02;17.20;99.90
18880;DHT22;9572;52.378;13.404;2022-09-09T08:01:33;17.20;99.90
18880;DHT22;9572;52.378;13.404;2022-09-09T08:04:05;17.40;99.90
18880;DHT22;9572;52.378;13.404;2022-09-09T08:06:35;17.60;99.90
18880;DHT22;9572;52.378;13.404;2022-09-09T08:09:03;17.60;99.90
18880;DHT22;9572;52.378;13.404;2022-09-09T08:11:30;17.80;99.90
18880;DHT22;9572;52.378;13.404;2022-09-09T08:13:58;17.80;99.90
18880;DHT22;9572;52.378;13.404;2022-09-09T08:16:29;17.90;99.90
18880;DHT22;9572;52.378;13.404;2022-09-09T08:19:00;18.00;99.90
18880;DHT22;9572;52.378;13.404;2022-09-09T08:21:28;18.10;99.90
18880;DHT22;9572;52.378;13.404;2022-09-09T08:23:57;18.30;99.90
18880;DHT22;9572;52.378;13.404;2022-09-09T08:26:25;18.40;99.90
18880;DHT22;9572;52.378;13.404;2022-09-09T08:28:54;18.50;99.90
18880;DHT22;9572;52.378;13.404;2022-09-09T08:31:24;18.50;99.90
18880;DHT22;9572;52.378;13.404;2022-09-09T08:33:55;18.40;99.90
18880;DHT22;9572;52.378;13.404;2022-09-09T08:36:24;18.30;99.90
18880;DHT22;9572;52.378;13.404;2022-09-09T08:38:53;18.20;99.90
18880;DHT22;9572;52.378;13.404;2022-09-09T08:41:44;18.20;99.90
18880;DHT22;9572;52.378;13.404;2022-09-09T08:44:22;18.30;99.90
18880;DHT22;9572;52.378;13.404;2022-09-09T08:46:57;18.40;99.90
18880;DHT22;9572;52.378;13.404;2022-09-09T08:49:52;18.50;99.90
18880;DHT22;9572;52.378;13.404;2022-09-09T08:52:23;18.60;99.90
18880;DHT22;9572;52.378;13.404;2022-09-09T08:54:52;18.70;99.90
18880;DHT22;9572;52.378;13.404;2022-09-09T08:57:28;18.90;99.90
18880;DHT22;9572;52.378;13.404;2022-09-09T08:59:57;19.10;99.90
18880;DHT22;9572;52.378;13.404;2022-09-09T09:02:30;19.20;99.90
18880;DHT22;9572;52.378;13.404;2022-09-09T09:05:14;19.40;99.90
18880;DHT22;9572;52.378;13.404;2022-09-09T09:07:58;19.50;99.90
18880;DHT22;9572;52.378;13.404;2022-09-09T09:10:44;19.60;99.90
18880;DHT22;9572;52.378;13.404;2022-09-09T09:13:15;19.70;99.90
18880;DHT22;9572;52.378;13.404;2022-09-09T09:15:44;19.90;99.90
18880;DHT22;9572;52.378;13.404;2022-09-09T09:18:13;19.90;99.90
18880;DHT22;9572;52.378;13.404;2022-09-09T09:20:50;20.00;99.90
18880;DHT22;9572;52.378;13.404;2022-09-09T09:25:59;20.00;99.90
18880;DHT22;9572;52.378;13.404;2022-09-09T09:28:29;20.00;99.90
18880;DHT22;9572;52.378;13.404;2022-09-09T09:31:01;20.00;99.90
18880;DHT22;9572;52.378;13.404;2022-09-09T09:33:34;20.00;99.90
18880;DHT22;9572;52.378;13.404;2022-09-09T09:36:05;20.00;99.90
18880;DHT22;9572;52.378;13.404;2022-09-09T09:38:34;20.20;99.90
18880;DHT22;9572;52.378;13.404;2022-09-09T09:41:02;20.40;99.90
18880;DHT22;9572;52.378;13.404;2022-09-09T09:43:30;20.90;99.90
18880;DHT22;9572;52.378;13.404;2022-09-09T09:45:58;21.40;99.90
18880;DHT22;9572;52.378;13.404;2022-09-09T09:48:26;21.90;99.90
18880;DHT22;9572;52.378;13.404;2022-09-09T09:50:54;22.40;99.90
18880;DHT22;9572;52.378;13.404;2022-09-09T09:53:26;22.90;99.90
18880;DHT22;9572;52.378;13.404;2022-09-09T09:55:56;23.50;99.90
18880;DHT22;9572;52.378;13.404;2022-09-09T09:58:25;24.00;99.90
18880;DHT22;9572;52.378;13.404;2022-09-09T10:00:54;24.20;99.90
18880;DHT22;9572;52.378;13.404;2022-09-09T10:03:26;24.20;99.90
18880;DHT22;9572;52.378;13.404;2022-09-09T10:05:53;24.20;99.90
18880;DHT22;9572;52.378;13.404;2022-09-09T10:08:22;24.60;99.90
18880;DHT22;9572;52.378;13.404;2022-09-09T10:11:00;24.70;99.90
18880;DHT22;9572;52.378;13.404;2022-09-09T10:13:34;24.70;99.90
18880;DHT22;9572;52.378;13.404;2022-09-09T10:16:14;24.70;99.90
18880;DHT22;9572;52.378;13.404;2022-09-09T10:18:58;24.60;99.90
18880;DHT22;9572;52.378;13.404;2022-09-09T10:24:31;24.10;99.90
18880;DHT22;9572;52.378;13.404;2022-09-09T10:27:11;24.20;99.90
18880;DHT22;9572;52.378;13.404;2022-09-09T10:30:01;24.60;99.90
18880;DHT22;9572;52.378;13.404;2022-09-09T10:32:38;25.00;99.90
18880;DHT22;9572;52.378;13.404;2022-09-09T10:35:12;24.60;99.90
18880;DHT22;9572;52.378;13.404;2022-09-09T10:37:58;24.20;99.90
18880;DHT22;9572;52.378;13.404;2022-09-09T10:40:32;23.90;99.90
18880;DHT22;9572;52.378;13.404;2022-09-09T10:43:08;23.60;99.90
18880;DHT22;9572;52.378;13.404;2022-09-09T10:45:47;23.40;99.90
18880;DHT22;9572;52.378;13.404;2022-09-09T10:48:28;23.80;99.90
18880;DHT22;9572;52.378;13.404;2022-09-09T10:51:02;24.90;99.90
18880;DHT22;9572;52.378;13.404;2022-09-09T10:53:43;26.00;99.90
18880;DHT22;9572;52.378;13.404;2022-09-09T10:56:16;26.70;99.90
18880;DHT22;9572;52.378;13.404;2022-09-09T10:58:48;27.10;99.90
18880;DHT22;9572;52.378;13.404;2022-09-09T11:01:18;27.50;99.90
18880;DHT22;9572;52.378;13.404;2022-09-09T11:03:53;27.90;99.90
18880;DHT22;9572;52.378;13.404;2022-09-09T11:06:27;27.80;99.90
18880;DHT22;9572;52.378;13.404;2022-09-09T11:08:56;28.00;99.90
18880;DHT22;9572;52.378;13.404;2022-09-09T11:11:29;28.50;99.90
18880;DHT22;9572;52.378;13.404;2022-09-09T11:14:03;29.10;99.90
18880;DHT22;9572;52.378;13.404;2022-09-09T11:16:38;29.50;99.90
18880;DHT22;9572;52.378;13.404;2022-09-09T11:19:14;28.90;99.90
18880;DHT22;9572;52.378;13.404;2022-09-09T11:21:46;28.50;99.90
18880;DHT22;9572;52.378;13.404;2022-09-09T11:24:18;28.50;99.90
18880;DHT22;9572;52.378;13.404;2022-09-09T11:26:52;28.30;99.90
18880;DHT22;9572;52.378;13.404;2022-09-09T11:29:43;28.00;99.90
18880;DHT22;9572;52.378;13.404;2022-09-09T11:32:26;27.70;99.90
18880;DHT22;9572;52.378;13.404;2022-09-09T11:35:03;27.80;99.90
18880;DHT22;9572;52.378;13.404;2022-09-09T11:37:47;28.10;99.90
18880;DHT22;9572;52.378;13.404;2022-09-09T11:40:21;27.60;99.90
18880;DHT22;9572;52.378;13.404;2022-09-09T11:42:49;26.90;99.90
18880;DHT22;9572;52.378;13.404;2022-09-09T11:45:28;26.20;99.90
18880;DHT22;9572;52.378;13.404;2022-09-09T11:47:57;25.50;99.90
18880;DHT22;9572;52.378;13.404;2022-09-09T11:50:33;25.20;99.90
18880;DHT22;9572;52.378;13.404;2022-09-09T11:53:14;25.40;99.90
18880;DHT22;9572;52.378;13.404;2022-09-09T11:55:42;25.50;99.90
18880;DHT22;9572;52.378;13.404;2022-09-09T11:58:16;25.30;99.90
18880;DHT22;9572;52.378;13.404;2022-09-09T12:00:46;24.90;99.90
18880;DHT22;9572;52.378;13.404;2022-09-09T12:03:33;24.60;99.90
18880;DHT22;9572;52.378;13.404;2022-09-09T12:06:10;24.50;99.90
18880;DHT22;9572;52.378;13.404;2022-09-09T12:08:42;24.50;99.90
18880;DHT22;9572;52.378;13.404;2022-09-09T12:11:10;24.40;99.90
18880;DHT22;9572;52.378;13.404;2022-09-09T12:13:37;24.40;99.90
18880;DHT22;9572;52.378;13.404;2022-09-09T12:16:31;24.40;99.90
18880;DHT22;9572;52.378;13.404;2022-09-09T12:19:13;24.60;99.90
18880;DHT22;9572;52.378;13.404;2022-09-09T12:21:45;24.60;99.90
18880;DHT22;9572;52.378;13.404;2022-09-09T12:24:21;24.50;99.90
18880;DHT22;9572;52.378;13.404;2022-09-09T12:26:54;24.40;99.90
18880;DHT22;9572;52.378;13.404;2022-09-09T12:29:28;24.10;99.90
18880;DHT22;9572;52.378;13.404;2022-09-09T12:32:04;23.80;99.90
18880;DHT22;9572;52.378;13.404;2022-09-09T12:34:38;23.70;99.90
18880;DHT22;9572;52.378;13.404;2022-09-09T12:37:11;23.60;99.90
18880;DHT22;9572;52.378;13.404;2022-09-09T12:39:44;23.70;99.90
18880;DHT22;9572;52.378;13.404;2022-09-09T12:42:19;23.70;99.90
18880;DHT22;9572;52.378;13.404;2022-09-09T12:44:54;23.80;99.90
18880;DHT22;9572;52.378;13.404;2022-09-09T12:47:28;23.90;99.90
18880;DHT22;9572;52.378;13.404;2022-09-09T12:49:56;23.90;99.90
18880;DHT22;9572;52.378;13.404;2022-09-09T12:52:27;23.90;99.90
18880;DHT22;9572;52.378;13.404;2022-09-09T12:54:57;23.90;99.90
18880;DHT22;9572;52.378;13.404;2022-09-09T12:57:26;23.90;99.90
18880;DHT22;9572;52.378;13.404;2022-09-09T13:00:11;23.80;99.90
18880;DHT22;9572;52.378;13.404;2022-09-09T13:02:48;23.80;99.90
18880;DHT22;9572;52.378;13.404;2022-09-09T13:05:19;23.80;99.90
18880;DHT22;9572;52.378;13.404;2022-09-09T13:07:46;23.80;99.90
18880;DHT22;9572;52.378;13.404;2022-09-09T13:10:15;23.70;99.90
18880;DHT22;9572;52.378;13.404;2022-09-09T13:12:43;23.60;99.90
18880;DHT22;9572;52.378;13.404;2022-09-09T13:15:19;23.60;99.90
18880;DHT22;9572;52.378;13.404;2022-09-09T13:17:57;23.50;99.90
18880;DHT22;9572;52.378;13.404;2022-09-09T13:20:26;23.60;99.90
18880;DHT22;9572;52.378;13.404;2022-09-09T13:22:55;23.50;99.90
18880;DHT22;9572;52.378;13.404;2022-09-09T13:25:24;23.50;99.90
18880;DHT22;9572;52.378;13.404;2022-09-09T13:27:57;23.50;99.90
18880;DHT22;9572;52.378;13.404;2022-09-09T13:30:27;23.50;99.90
18880;DHT22;9572;52.378;13.404;2022-09-09T13:33:21;23.50;99.90
18880;DHT22;9572;52.378;13.404;2022-09-09T13:35:51;23.30;99.90
18880;DHT22;9572;52.378;13.404;2022-09-09T13:38:20;23.30;99.90
18880;DHT22;9572;52.378;13.404;2022-09-09T13:40:55;23.20;99.90
18880;DHT22;9572;52.378;13.404;2022-09-09T13:43:24;23.10;99.90
18880;DHT22;9572;52.378;13.404;2022-09-09T13:45:55;23.00;99.90
18880;DHT22;9572;52.378;13.404;2022-09-09T13:48:25;22.90;99.90
18880;DHT22;9572;52.378;13.404;2022-09-09T13:50:56;22.90;99.90
18880;DHT22;9572;52.378;13.404;2022-09-09T13:53:23;22.80;99.90
18880;DHT22;9572;52.378;13.404;2022-09-09T13:55:50;22.70;99.90
18880;DHT22;9572;52.378;13.404;2022-09-09T13:58:18;22.60;99.90
18880;DHT22;9572;52.378;13.404;2022-09-09T14:00:45;22.60;99.90
18880;DHT22;9572;52.378;13.404;2022-09-09T14:03:13;22.50;99.90
18880;DHT22;9572;52.378;13.404;2022-09-09T14:05:41;22.30;99.90
18880;DHT22;9572;52.378;13.404;2022-09-09T14:08:15;22.20;99.90
18880;DHT22;9572;52.378;13.404;2022-09-09T14:10:42;22.00;99.90
18880;DHT22;9572;52.378;13.404;2022-09-09T14:13:09;21.90;99.90
18880;DHT22;9572;52.378;13.404;2022-09-09T14:15:37;21.80;99.90
18880;DHT22;9572;52.378;13.404;2022-09-09T14:18:04;21.70;99.90
18880;DHT22;9572;52.378;13.404;2022-09-09T14:20:31;21.70;99.90
18880;DHT22;9572;52.378;13.404;2022-09-09T14:22:59;21.80;99.90
18880;DHT22;9572;52.378;13.404;2022-09-09T14:25:26;21.80;99.90
18880;DHT22;9572;52.378;13.404;2022-09-09T14:27:54;21.80;99.90
18880;DHT22;9572;52.378;13.404;2022-09-09T14:30:21;21.90;99.90
18880;DHT22;9572;52.378;13.404;2022-09-09T14:32:48;22.00;99.90
18880;DHT22;9572;52.378;13.404;2022-09-09T14:35:15;21.80;99.90
18880;DHT22;9572;52.378;13.404;2022-09-09T14:37:42;21.80;99.90
18880;DHT22;9572;52.378;13.404;2022-09-09T14:40:11;21.60;99.90
18880;DHT22;9572;52.378;13.404;2022-09-09T14:42:39;21.50;99.90
18880;DHT22;9572;52.378;13.404;2022-09-09T14:45:07;21.50;99.90
18880;DHT22;9572;52.378;13.404;2022-09-09T14:47:35;21.40;99.90
18880;DHT22;9572;52.378;13.404;2022-09-09T14:50:02;21.40;99.90
18880;DHT22;9572;52.378;13.404;2022-09-09T14:52:30;21.50;99.90
18880;DHT22;9572;52.378;13.404;2022-09-09T14:54:57;21.60;99.90
18880;DHT22;9572;52.378;13.404;2022-09-09T14:57:28;21.40;99.90
18880;DHT22;9572;52.378;13.404;2022-09-09T14:59:55;21.30;99.90
18880;DHT22;9572;52.378;13.404;2022-09-09T15:02:22;21.20;99.90
18880;DHT22;9572;52.378;13.404;2022-09-09T15:04:51;21.10;99.90
18880;DHT22;9572;52.378;13.404;2022-09-09T15:07:18;21.10;99.90
18880;DHT22;9572;52.378;13.404;2022-09-09T15:09:45;21.00;99.90
18880;DHT22;9572;52.378;13.404;2022-09-09T15:12:14;21.00;99.90
18880;DHT22;9572;52.378;13.404;2022-09-09T15:14:42;21.00;99.90
18880;DHT22;9572;52.378;13.404;2022-09-09T15:17:09;21.10;99.90
18880;DHT22;9572;52.378;13.404;2022-09-09T15:19:39;21.10;99.90
18880;DHT22;9572;52.378;13.404;2022-09-09T15:22:08;21.20;99.90
18880;DHT22;9572;52.378;13.404;2022-09-09T15:24:35;21.10;99.90
18880;DHT22;9572;52.378;13.404;2022-09-09T15:27:02;21.10;99.90
18880;DHT22;9572;52.378;13.404;2022-09-09T15:29:29;20.90;99.90
18880;DHT22;9572;52.378;13.404;2022-09-09T15:31:57;20.90;99.90
18880;DHT22;9572;52.378;13.404;2022-09-09T15:34:24;20.90;99.90
18880;DHT22;9572;52.378;13.404;2022-09-09T15:36:51;20.90;99.90
18880;DHT22;9572;52.378;13.404;2022-09-09T15:39:20;20.90;99.90
18880;DHT22;9572;52.378;13.404;2022-09-09T15:41:48;20.90;99.90
18880;DHT22;9572;52.378;13.404;2022-09-09T15:44:16;20.90;99.90
18880;DHT22;9572;52.378;13.404;2022-09-09T15:46:46;21.00;99.90
18880;DHT22;9572;52.378;13.404;2022-09-09T15:49:17;21.00;99.90
18880;DHT22;9572;52.378;13.404;2022-09-09T15:51:46;21.10;99.90
18880;DHT22;9572;52.378;13.404;2022-09-09T15:54:15;21.10;99.90
18880;DHT22;9572;52.378;13.404;2022-09-09T15:56:43;21.10;99.90
18880;DHT22;9572;52.378;13.404;2022-09-09T15:59:10;21.10;99.90
18880;DHT22;9572;52.378;13.404;2022-09-09T16:01:38;21.00;99.90
18880;DHT22;9572;52.378;13.404;2022-09-09T16:04:06;21.00;99.90